Time;durP1;ratioP1;P1;durP2;ratioP2;P2;SDS_P1;SDS_P2;PMS_P1;PMS_P2;Temp;Humidity;BMP_temperature;BMP_pressure;BME280_temperature;BME280_humidity;BME280_pressure;Samples;Min_cycle;Max_cycle;Signal;HPM_P1;HPM_P2
2021/08/09 00:01:33;;;;;;;5.43;1.27;;;18.10;99.90;;;;;;5036204;28;20025;-90
2021/08/09 00:03:59;;;;;;;3.58;1.27;;;18.10;99.90;;;;;;5036244;28;20032;-83
2021/08/09 00:06:25;;;;;;;4.25;1.20;;;18.10;99.90;;;;;;5036250;28;20064;-84
2021/08/09 00:08:51;;;;;;;3.67;1.20;;;18.10;99.90;;;;;;5036313;28;20025;-84
2021/08/09 00:11:17;;;;;;;3.85;1.20;;;18.00;99.90;;;;;;5054035;28;20491;-84
2021/08/09 00:13:42;;;;;;;4.18;1.17;;;18.00;99.90;;;;;;5036263;28;20041;-90
2021/08/09 00:16:08;;;;;;;4.40;1.13;;;18.00;99.90;;;;;;5036444;28;20468;-84
2021/08/09 00:18:34;;;;;;;5.18;1.25;;;17.90;99.90;;;;;;5036429;28;20025;-83
2021/08/09 00:20:59;;;;;;;2.53;1.30;;;17.90;99.90;;;;;;5036434;28;20119;-83
2021/08/09 00:23:25;;;;;;;2.67;1.20;;;17.90;99.90;;;;;;5036586;28;20029;-84
2021/08/09 00:25:51;;;;;;;3.65;1.17;;;17.80;99.90;;;;;;5036354;28;20036;-84
2021/08/09 00:28:17;;;;;;;4.55;1.10;;;17.70;99.90;;;;;;5036148;28;20085;-84
2021/08/09 00:30:42;;;;;;;2.70;1.00;;;17.70;99.90;;;;;;5053784;28;20021;-89
2021/08/09 00:33:08;;;;;;;2.85;1.20;;;17.90;99.90;;;;;;5036007;28;20372;-86
2021/08/09 00:35:34;;;;;;;3.80;1.63;;;17.90;99.90;;;;;;5036274;28;20116;-86
2021/08/09 00:37:59;;;;;;;2.72;1.17;;;17.90;99.90;;;;;;5036107;28;20534;-85
2021/08/09 00:40:25;;;;;;;1.15;0.90;;;17.80;99.90;;;;;;5036303;28;20036;-83
2021/08/09 00:42:51;;;;;;;4.88;1.50;;;17.80;99.90;;;;;;5035988;28;20380;-83
2021/08/09 00:45:17;;;;;;;5.43;1.00;;;17.80;99.90;;;;;;5035886;28;20078;-84
2021/08/09 00:47:43;;;;;;;4.03;0.95;;;17.70;99.90;;;;;;5036223;28;20017;-84
2021/08/09 00:50:09;;;;;;;2.30;1.20;;;17.70;99.90;;;;;;5036130;28;20044;-85
2021/08/09 00:52:35;;;;;;;1.15;0.80;;;17.80;99.90;;;;;;5036000;28;20017;-84
2021/08/09 00:55:01;;;;;;;5.68;1.02;;;17.70;99.90;;;;;;5035963;28;20025;-84
2021/08/09 00:57:27;;;;;;;4.47;0.82;;;17.70;99.90;;;;;;5036042;28;20021;-83
2021/08/09 00:59:53;;;;;;;2.03;0.80;;;17.70;99.90;;;;;;5035866;28;20433;-87
2021/08/09 01:02:22;;;;;;;1.02;0.80;;;17.70;99.90;;;;;;5035916;28;20099;-86
2021/08/09 01:04:48;;;;;;;3.25;1.10;;;17.60;99.90;;;;;;5035795;28;20044;-86
2021/08/09 01:07:13;;;;;;;4.13;0.73;;;17.50;99.90;;;;;;5035902;28;20031;-85
2021/08/09 01:09:46;;;;;;;1.77;0.93;;;17.50;99.90;;;;;;5035643;28;20029;-84
2021/08/09 01:12:30;;;;;;;1.80;0.80;;;17.40;99.90;;;;;;5037833;28;20538;-86
2021/08/09 01:15:14;;;;;;;2.80;0.90;;;17.50;99.90;;;;;;5039249;28;20099;-85
2021/08/09 01:17:43;;;;;;;1.88;0.82;;;17.40;99.90;;;;;;5039178;28;20112;-85
2021/08/09 01:20:26;;;;;;;1.98;0.90;;;17.20;99.90;;;;;;5039150;28;20032;-85
2021/08/09 01:23:04;;;;;;;2.38;0.70;;;17.30;99.90;;;;;;5039267;28;20021;-84
2021/08/09 01:25:37;;;;;;;3.10;0.80;;;17.20;99.90;;;;;;5039245;28;20045;-85
2021/08/09 01:28:05;;;;;;;2.47;0.75;;;17.10;99.90;;;;;;5039513;28;20025;-89
2021/08/09 01:30:32;;;;;;;1.45;0.60;;;17.10;99.90;;;;;;5039293;28;20039;-87
2021/08/09 01:32:58;;;;;;;1.40;0.75;;;17.00;99.90;;;;;;5039066;28;20472;-83
2021/08/09 01:35:26;;;;;;;2.45;0.90;;;17.00;99.90;;;;;;5039175;28;20471;-83
2021/08/09 01:37:55;;;;;;;1.23;0.80;;;17.00;99.90;;;;;;5038927;28;20032;-84
2021/08/09 01:40:22;;;;;;;2.45;0.70;;;16.90;99.90;;;;;;5038892;28;20025;-85
2021/08/09 01:42:48;;;;;;;1.55;0.80;;;16.90;99.90;;;;;;5038699;28;20024;-84
2021/08/09 01:45:15;;;;;;;1.38;0.77;;;17.00;99.90;;;;;;5038655;28;20128;-83
2021/08/09 01:47:43;;;;;;;3.65;0.85;;;16.90;99.90;;;;;;5038912;28;20024;-85
2021/08/09 01:50:10;;;;;;;1.25;0.88;;;16.90;99.90;;;;;;5038777;28;20032;-83
2021/08/09 01:52:38;;;;;;;2.55;0.80;;;16.90;99.90;;;;;;5038593;28;20025;-83
2021/08/09 01:55:04;;;;;;;1.23;0.60;;;16.90;99.90;;;;;;5038599;28;20025;-83
2021/08/09 01:57:31;;;;;;;3.25;0.70;;;16.80;99.90;;;;;;5038811;28;20052;-82
2021/08/09 01:59:57;;;;;;;1.83;0.70;;;16.80;99.90;;;;;;5038732;28;20078;-83
2021/08/09 02:02:26;;;;;;;2.45;0.70;;;16.90;99.90;;;;;;5038505;28;20331;-83
2021/08/09 02:04:52;;;;;;;1.27;0.70;;;16.80;99.90;;;;;;5038194;28;20037;-82
2021/08/09 02:07:17;;;;;;;1.65;0.60;;;16.90;99.90;;;;;;5038412;28;20035;-83
2021/08/09 02:09:43;;;;;;;1.15;0.70;;;16.90;99.90;;;;;;5038294;28;20108;-83
2021/08/09 02:12:09;;;;;;;1.20;0.63;;;16.90;99.90;;;;;;5038075;28;20052;-83
2021/08/09 02:14:41;;;;;;;1.17;0.70;;;17.00;99.90;;;;;;5055838;28;20098;-84
2021/08/09 02:17:18;;;;;;;1.85;0.73;;;17.00;99.90;;;;;;5038366;28;20127;-82
2021/08/09 02:19:59;;;;;;;1.77;0.95;;;16.90;99.90;;;;;;5038238;28;20167;-82
2021/08/09 02:22:31;;;;;;;1.25;0.75;;;16.90;99.90;;;;;;5037238;28;20044;-85
2021/08/09 02:25:08;;;;;;;1.35;1.02;;;16.90;99.90;;;;;;5037660;28;20562;-82
2021/08/09 02:27:42;;;;;;;3.63;0.90;;;16.90;99.90;;;;;;5038004;28;20029;-84
2021/08/09 02:30:10;;;;;;;2.97;0.90;;;16.90;99.90;;;;;;5038317;28;20021;-84
2021/08/09 02:32:37;;;;;;;1.60;0.60;;;16.90;99.90;;;;;;5037954;28;20032;-84
2021/08/09 02:35:04;;;;;;;1.27;0.68;;;16.90;99.90;;;;;;5037809;28;20023;-85
2021/08/09 02:37:31;;;;;;;2.25;0.60;;;17.00;99.90;;;;;;5037709;28;20114;-85
2021/08/09 02:39:58;;;;;;;1.40;0.50;;;16.90;99.90;;;;;;5037783;28;20564;-85
2021/08/09 02:42:24;;;;;;;1.00;0.60;;;16.90;99.90;;;;;;5037666;28;20036;-89
2021/08/09 02:44:52;;;;;;;2.70;0.80;;;16.80;99.90;;;;;;5037434;28;20032;-83
2021/08/09 02:47:18;;;;;;;1.92;1.23;;;16.80;99.90;;;;;;5037713;28;20028;-89
2021/08/09 02:49:49;;;;;;;1.45;0.70;;;16.90;99.90;;;;;;5055449;28;20468;-84
2021/08/09 02:52:17;;;;;;;5.60;1.25;;;16.80;99.90;;;;;;5037674;28;20534;-83
2021/08/09 02:54:48;;;;;;;3.50;1.40;;;16.80;99.90;;;;;;5037517;28;20452;-83
2021/08/09 02:57:15;;;;;;;1.73;0.90;;;16.70;99.90;;;;;;5055144;28;20023;-84
2021/08/09 02:59:41;;;;;;;2.47;0.68;;;16.60;99.90;;;;;;5037206;28;20028;-85
2021/08/09 03:02:08;;;;;;;1.52;0.60;;;16.60;99.90;;;;;;5036961;28;20396;-84
2021/08/09 03:04:36;;;;;;;1.75;0.80;;;16.60;99.90;;;;;;5037247;28;20033;-91
2021/08/09 03:07:06;;;;;;;1.38;0.80;;;16.60;99.90;;;;;;5037231;28;20021;-84
2021/08/09 03:09:35;;;;;;;2.22;0.65;;;16.50;99.90;;;;;;5054950;28;20017;-84
2021/08/09 03:12:01;;;;;;;1.85;0.40;;;16.50;99.90;;;;;;5037092;28;20046;-83
2021/08/09 03:14:31;;;;;;;1.50;0.63;;;16.50;99.90;;;;;;5036760;28;20052;-84
2021/08/09 03:17:02;;;;;;;1.98;0.70;;;16.40;99.90;;;;;;5037044;28;20055;-84
2021/08/09 03:19:28;;;;;;;2.38;0.80;;;16.40;99.90;;;;;;5037073;28;20029;-86
2021/08/09 03:21:56;;;;;;;4.00;0.60;;;16.40;99.90;;;;;;5037046;28;20050;-85
2021/08/09 03:24:23;;;;;;;3.22;0.45;;;16.40;99.90;;;;;;5036885;28;20025;-86
2021/08/09 03:26:50;;;;;;;1.58;0.68;;;16.50;99.90;;;;;;5053879;28;20033;-85
2021/08/09 03:29:16;;;;;;;5.25;0.75;;;16.50;99.90;;;;;;5036756;28;20107;-85
2021/08/09 03:31:42;;;;;;;3.88;0.52;;;16.50;99.90;;;;;;5036637;28;20025;-85
2021/08/09 03:34:08;;;;;;;2.05;0.80;;;16.40;99.90;;;;;;5036570;28;20127;-87
2021/08/09 03:36:34;;;;;;;2.75;0.90;;;16.40;99.90;;;;;;5036835;28;20028;-85
2021/08/09 03:39:00;;;;;;;3.42;1.23;;;16.40;99.90;;;;;;5036648;28;20029;-84
2021/08/09 03:41:26;;;;;;;1.00;0.82;;;16.40;99.90;;;;;;5036542;28;20044;-85
2021/08/09 03:43:51;;;;;;;2.03;1.10;;;16.40;99.90;;;;;;5036473;28;20439;-85
2021/08/09 03:46:17;;;;;;;1.65;0.90;;;16.40;99.90;;;;;;5036495;28;20434;-85
2021/08/09 03:48:43;;;;;;;2.00;1.20;;;17.40;99.90;;;;;;5036571;28;20484;-86
2021/08/09 03:51:08;;;;;;;1.15;0.70;;;18.20;99.90;;;;;;5036763;28;20478;-86
2021/08/09 03:53:34;;;;;;;1.52;0.93;;;18.30;99.90;;;;;;5039682;28;20032;-85
2021/08/09 03:56:00;;;;;;;2.40;0.90;;;18.40;99.90;;;;;;5036509;28;20171;-87
2021/08/09 03:58:25;;;;;;;2.63;0.60;;;18.60;99.90;;;;;;5036605;28;20474;-87
2021/08/09 04:00:51;;;;;;;1.33;0.80;;;18.80;99.90;;;;;;5036851;28;20028;-86
2021/08/09 04:03:17;;;;;;;5.30;4.75;;;18.70;99.90;;;;;;5054078;28;20021;-85
2021/08/09 04:05:43;;;;;;;5.32;1.55;;;18.90;99.90;;;;;;5039224;28;20128;-84
2021/08/09 04:08:09;;;;;;;2.08;1.00;;;18.80;99.90;;;;;;5036358;28;20036;-86
2021/08/09 04:10:34;;;;;;;2.17;1.30;;;18.90;99.90;;;;;;5036134;28;20079;-89
2021/08/09 04:13:00;;;;;;;2.85;0.90;;;18.90;99.90;;;;;;5041221;28;20029;-84
2021/08/09 04:15:26;;;;;;;3.40;0.60;;;18.80;99.90;;;;;;5036545;28;20032;-85
2021/08/09 04:17:51;;;;;;;1.75;0.73;;;18.80;99.90;;;;;;5036527;28;20460;-86
2021/08/09 04:20:17;;;;;;;3.42;1.10;;;19.10;99.90;;;;;;5036079;28;20052;-89
2021/08/09 04:22:43;;;;;;;1.90;1.00;;;19.20;99.90;;;;;;5036302;28;20025;-87
2021/08/09 04:25:09;;;;;;;12.20;0.98;;;19.30;99.90;;;;;;5036287;28;20791;-86
2021/08/09 04:27:35;;;;;;;3.60;0.93;;;19.40;99.90;;;;;;5036306;28;20017;-91
2021/08/09 04:30:00;;;;;;;5.22;1.00;;;19.30;99.90;;;;;;5036866;28;20029;-89
2021/08/09 04:32:35;;;;;;;2.22;0.95;;;19.10;99.90;;;;;;5036182;28;20096;-85
2021/08/09 04:35:01;;;;;;;2.22;0.65;;;19.10;99.90;;;;;;5036152;28;20025;-84
2021/08/09 04:37:27;;;;;;;1.75;1.00;;;18.90;99.90;;;;;;5036376;28;20025;-86
2021/08/09 04:39:52;;;;;;;2.42;0.80;;;18.80;99.90;;;;;;5036197;28;20462;-84
2021/08/09 04:42:18;;;;;;;2.50;0.82;;;19.10;99.90;;;;;;5036211;28;20540;-89
2021/08/09 04:44:44;;;;;;;2.47;1.08;;;19.20;99.90;;;;;;5036029;28;20120;-85
2021/08/09 04:47:09;;;;;;;5.25;1.25;;;19.10;99.90;;;;;;5038506;28;20461;-83
2021/08/09 04:49:35;;;;;;;2.28;1.00;;;19.20;99.90;;;;;;5040133;28;20017;-83
2021/08/09 04:52:01;;;;;;;4.40;1.70;;;18.80;99.90;;;;;;5039646;28;20052;-85
2021/08/09 04:54:27;;;;;;;5.13;2.08;;;18.40;99.90;;;;;;5039766;28;20033;-92
2021/08/09 04:56:53;;;;;;;4.55;2.38;;;18.00;99.90;;;;;;5039808;28;20027;-84
2021/08/09 04:59:19;;;;;;;2.53;1.10;;;17.90;99.90;;;;;;5039667;28;20056;-85
2021/08/09 05:01:44;;;;;;;5.85;1.20;;;17.70;99.90;;;;;;5039649;28;20028;-87
2021/08/09 05:04:10;;;;;;;2.03;1.40;;;17.50;99.90;;;;;;5039558;28;20590;-88
2021/08/09 05:06:36;;;;;;;2.53;1.48;;;17.50;99.90;;;;;;5039704;28;20029;-85
2021/08/09 05:09:01;;;;;;;4.55;1.80;;;17.40;99.90;;;;;;5039795;28;20072;-87
2021/08/09 05:11:27;;;;;;;5.80;1.48;;;17.30;99.90;;;;;;5039645;28;20021;-86
2021/08/09 05:13:53;;;;;;;2.53;1.02;;;17.30;99.90;;;;;;5039471;28;20076;-86
2021/08/09 05:16:18;;;;;;;2.72;1.10;;;17.20;99.90;;;;;;5039669;28;20032;-87
2021/08/09 05:18:44;;;;;;;3.08;1.38;;;17.30;99.90;;;;;;5039523;28;20509;-86
2021/08/09 05:21:13;;;;;;;4.53;1.15;;;17.30;99.90;;;;;;5039195;28;20380;-86
2021/08/09 05:23:39;;;;;;;4.88;1.20;;;17.30;99.90;;;;;;5039181;28;20534;-85
2021/08/09 05:26:05;;;;;;;3.83;1.33;;;17.40;99.90;;;;;;5039091;28;20033;-84
2021/08/09 05:28:30;;;;;;;7.63;1.60;;;17.40;99.90;;;;;;5038922;28;20079;-86
2021/08/09 05:30:56;;;;;;;3.28;1.17;;;17.50;99.90;;;;;;5038938;28;20043;-85
2021/08/09 05:33:22;;;;;;;2.53;1.10;;;17.50;99.90;;;;;;5039141;28;20028;-84
2021/08/09 05:35:47;;;;;;;7.07;5.93;;;17.60;99.90;;;;;;5038707;28;20272;-83
2021/08/09 05:38:13;;;;;;;2.10;1.30;;;17.60;99.90;;;;;;5039089;28;20060;-85
2021/08/09 05:40:39;;;;;;;3.00;1.20;;;17.70;99.90;;;;;;5039012;28;20495;-86
2021/08/09 05:43:05;;;;;;;3.95;1.42;;;17.70;99.90;;;;;;5038960;28;20375;-82
2021/08/09 05:45:31;;;;;;;2.63;1.17;;;17.80;99.90;;;;;;5039033;28;20129;-87
2021/08/09 05:47:56;;;;;;;3.67;1.40;;;17.80;99.90;;;;;;5038688;28;20021;-83
2021/08/09 05:50:22;;;;;;;2.15;1.10;;;17.90;99.90;;;;;;5038712;28;20032;-83
2021/08/09 05:52:48;;;;;;;1.52;1.30;;;18.00;99.90;;;;;;5038758;28;20036;-84
2021/08/09 05:55:13;;;;;;;4.22;1.20;;;18.10;99.90;;;;;;5038634;28;20899;-82
2021/08/09 05:57:40;;;;;;;5.20;1.02;;;18.20;99.90;;;;;;5038828;28;20052;-84
2021/08/09 06:00:07;;;;;;;2.67;1.10;;;18.40;99.90;;;;;;5038525;28;20416;-84
2021/08/09 06:02:40;;;;;;;2.53;1.20;;;18.50;99.90;;;;;;5038450;28;20472;-91
2021/08/09 06:05:06;;;;;;;2.78;1.20;;;18.50;99.90;;;;;;5038395;28;20079;-82
2021/08/09 06:07:31;;;;;;;4.60;1.10;;;18.70;99.90;;;;;;5038296;28;20025;-81
2021/08/09 06:09:58;;;;;;;2.95;1.00;;;18.70;99.90;;;;;;5041326;28;20033;-81
2021/08/09 06:12:23;;;;;;;3.03;0.90;;;18.80;99.90;;;;;;5038478;28;20056;-88
2021/08/09 06:14:49;;;;;;;3.53;0.90;;;18.80;99.90;;;;;;5037934;28;20049;-81
2021/08/09 06:17:15;;;;;;;12.80;1.33;;;18.90;99.90;;;;;;5055766;28;20029;-79
2021/08/09 06:19:40;;;;;;;2.63;1.05;;;19.10;99.90;;;;;;5055882;28;20064;-79
2021/08/09 06:22:06;;;;;;;4.40;0.80;;;19.20;99.90;;;;;;5055696;28;20033;-84
2021/08/09 06:24:32;;;;;;;2.05;0.70;;;19.30;99.90;;;;;;5037728;28;20032;-80
2021/08/09 06:26:58;;;;;;;2.08;0.98;;;19.30;99.90;;;;;;5038093;28;20029;-79
2021/08/09 06:29:24;;;;;;;4.28;1.00;;;19.50;99.90;;;;;;5037607;28;20041;-79
2021/08/09 06:31:50;;;;;;;5.38;1.08;;;19.50;99.90;;;;;;5037617;28;20102;-80
2021/08/09 06:34:15;;;;;;;2.55;0.82;;;19.60;99.90;;;;;;5037597;28;20024;-85
2021/08/09 06:36:41;;;;;;;2.97;1.08;;;19.70;99.90;;;;;;5054397;28;20032;-79
2021/08/09 06:39:07;;;;;;;3.05;1.13;;;19.80;99.90;;;;;;5036044;28;20424;-79
2021/08/09 06:41:34;;;;;;;2.08;0.98;;;19.80;99.90;;;;;;5036046;28;20025;-79
2021/08/09 06:44:00;;;;;;;1.10;0.70;;;19.90;99.90;;;;;;5036092;28;20033;-79
2021/08/09 06:46:26;;;;;;;1.55;0.68;;;20.00;99.90;;;;;;5036299;28;20029;-85
2021/08/09 06:48:52;;;;;;;1.08;0.70;;;20.10;99.90;;;;;;5053584;28;20029;-78
2021/08/09 06:51:17;;;;;;;6.00;1.40;;;20.30;99.90;;;;;;5053739;28;20025;-78
2021/08/09 06:53:43;;;;;;;3.55;0.60;;;20.50;99.90;;;;;;5035622;28;20033;-79
2021/08/09 06:56:13;;;;;;;2.70;0.88;;;20.40;99.90;;;;;;5035797;28;20456;-79
2021/08/09 06:58:38;;;;;;;2.20;0.80;;;20.50;99.90;;;;;;5053794;28;20017;-80
2021/08/09 07:01:04;;;;;;;2.65;0.77;;;20.60;99.90;;;;;;5053610;28;20028;-78
2021/08/09 07:03:30;;;;;;;2.58;1.00;;;20.80;99.90;;;;;;5035678;28;20028;-78
2021/08/09 07:05:55;;;;;;;2.15;0.65;;;21.10;99.90;;;;;;5035884;28;20052;-79
2021/08/09 07:08:21;;;;;;;1.38;0.70;;;21.10;99.90;;;;;;5053347;28;20080;-79
2021/08/09 07:10:47;;;;;;;2.88;0.80;;;21.30;99.90;;;;;;5034442;28;20074;-82
2021/08/09 07:13:13;;;;;;;6.63;1.02;;;21.30;99.90;;;;;;5055227;28;20037;-78
2021/08/09 07:15:39;;;;;;;1.08;0.68;;;21.40;99.90;;;;;;5035395;28;20393;-79
2021/08/09 07:18:04;;;;;;;2.80;0.50;;;21.50;99.90;;;;;;5035064;28;20175;-78
2021/08/09 07:20:30;;;;;;;1.23;0.63;;;21.40;96.00;;;;;;5034805;28;20029;-78
2021/08/09 07:22:56;;;;;;;1.23;0.65;;;21.60;96.80;;;;;;5034379;28;20020;-78
2021/08/09 07:25:21;;;;;;;4.55;0.98;;;21.60;91.00;;;;;;5034730;28;20040;-78
2021/08/09 07:27:47;;;;;;;0.88;0.50;;;21.90;95.20;;;;;;5034657;28;20025;-78
2021/08/09 07:30:14;;;;;;;2.97;0.60;;;22.10;93.90;;;;;;5052468;28;20028;-79
2021/08/09 07:32:40;;;;;;;1.23;0.30;;;22.30;92.80;;;;;;5034474;28;20364;-78
2021/08/09 07:35:07;;;;;;;0.95;0.32;;;22.40;85.00;;;;;;5034583;28;20025;-79
2021/08/09 07:37:33;;;;;;;1.23;0.45;;;22.60;82.90;;;;;;5034533;28;20040;-78
2021/08/09 07:39:59;;;;;;;0.95;0.40;;;22.70;83.90;;;;;;5034465;28;20435;-79
2021/08/09 07:42:25;;;;;;;0.52;0.22;;;22.60;83.50;;;;;;5034282;28;20033;-78
2021/08/09 07:44:51;;;;;;;1.20;0.45;;;22.70;82.50;;;;;;5035229;28;20388;-80
2021/08/09 07:47:17;;;;;;;1.52;0.40;;;22.50;85.20;;;;;;5034753;28;20078;-78
2021/08/09 07:49:43;;;;;;;2.28;0.52;;;22.70;86.50;;;;;;5035048;28;20020;-78
2021/08/09 07:52:09;;;;;;;3.90;0.50;;;23.00;86.30;;;;;;5052904;28;20142;-79
2021/08/09 07:54:35;;;;;;;1.13;0.57;;;23.00;82.90;;;;;;5034561;28;20151;-79
2021/08/09 07:57:03;;;;;;;1.80;0.50;;;23.20;83.30;;;;;;5034594;28;20021;-78
2021/08/09 07:59:30;;;;;;;1.48;0.50;;;22.80;80.70;;;;;;5052471;28;20479;-81
2021/08/09 08:01:55;;;;;;;1.70;0.70;;;22.90;83.40;;;;;;5052588;28;20079;-84
2021/08/09 08:04:21;;;;;;;2.45;0.60;;;23.20;83.30;;;;;;5052621;28;20468;-77
2021/08/09 08:06:47;;;;;;;5.22;0.80;;;23.10;80.20;;;;;;5052350;28;20390;-78
2021/08/09 08:09:12;;;;;;;1.33;0.50;;;23.30;82.90;;;;;;5058639;28;20452;-79
2021/08/09 08:11:38;;;;;;;1.02;0.50;;;23.40;80.50;;;;;;5034593;28;20433;-86
2021/08/09 08:14:04;;;;;;;0.60;0.30;;;23.40;79.70;;;;;;5052156;28;20044;-78
2021/08/09 08:16:30;;;;;;;0.70;0.30;;;23.40;78.90;;;;;;5052350;28;20082;-78
2021/08/09 08:18:55;;;;;;;0.93;0.30;;;23.50;76.30;;;;;;5052635;28;20047;-79
2021/08/09 08:21:21;;;;;;;2.63;0.40;;;23.50;74.90;;;;;;5053335;28;20349;-78
2021/08/09 08:23:47;;;;;;;2.90;0.70;;;23.60;75.90;;;;;;5038675;28;20539;-78
2021/08/09 08:26:12;;;;;;;6.20;0.38;;;23.50;74.60;;;;;;5056222;28;20369;-77
2021/08/09 08:28:38;;;;;;;0.65;0.30;;;23.40;76.20;;;;;;5038357;28;20087;-79
2021/08/09 08:31:05;;;;;;;0.70;0.22;;;23.50;74.60;;;;;;5038397;28;20120;-79
2021/08/09 08:33:30;;;;;;;2.03;0.50;;;23.40;72.60;;;;;;5038322;28;20448;-79
2021/08/09 08:35:56;;;;;;;1.92;0.70;;;23.50;74.20;;;;;;5038632;28;20116;-79
2021/08/09 08:38:22;;;;;;;7.38;0.65;;;23.70;74.80;;;;;;5038413;28;20025;-79
2021/08/09 08:40:50;;;;;;;3.05;0.50;;;23.90;75.40;;;;;;5038174;28;20064;-83
2021/08/09 08:43:27;;;;;;;0.77;0.40;;;24.10;75.40;;;;;;5038482;28;20365;-78
2021/08/09 08:45:56;;;;;;;3.45;0.50;;;24.20;74.10;;;;;;5038432;28;20060;-78
2021/08/09 08:48:23;;;;;;;1.48;0.50;;;24.30;71.40;;;;;;5038983;28;20079;-81
2021/08/09 08:50:49;;;;;;;1.52;0.40;;;24.30;69.80;;;;;;5057071;28;20031;-81
2021/08/09 08:53:15;;;;;;;0.90;0.40;;;24.40;71.10;;;;;;5038577;28;20770;-80
2021/08/09 08:55:41;;;;;;;0.77;0.40;;;24.60;72.40;;;;;;5056428;28;20099;-86
2021/08/09 08:58:06;;;;;;;1.67;0.60;;;24.70;72.90;;;;;;5038087;28;20094;-80
2021/08/09 09:00:42;;;;;;;1.60;0.50;;;24.80;71.30;;;;;;5038374;28;20037;-79
2021/08/09 09:03:19;;;;;;;1.30;0.45;;;24.70;71.10;;;;;;5056109;28;20024;-80
2021/08/09 09:05:59;;;;;;;1.15;0.30;;;24.70;71.10;;;;;;5056353;28;20036;-77
2021/08/09 09:08:38;;;;;;;0.95;0.40;;;24.80;68.80;;;;;;5038131;28;20604;-77
2021/08/09 09:11:05;;;;;;;2.75;0.63;;;24.90;71.10;;;;;;5038404;28;20028;-86
2021/08/09 09:13:31;;;;;;;2.70;0.30;;;25.00;69.70;;;;;;5055788;28;20052;-79
2021/08/09 09:16:07;;;;;;;1.73;0.43;;;25.10;68.10;;;;;;5038404;28;20033;-80
2021/08/09 09:18:48;;;;;;;0.50;0.28;;;25.10;65.70;;;;;;5055564;28;20025;-80
2021/08/09 09:21:27;;;;;;;1.02;0.30;;;24.90;67.00;;;;;;5037486;28;20074;-79
2021/08/09 09:23:55;;;;;;;1.58;0.40;;;25.00;69.10;;;;;;5037609;28;20120;-78
2021/08/09 09:26:26;;;;;;;0.90;0.40;;;25.00;67.90;;;;;;5037598;28;20045;-78
2021/08/09 09:28:53;;;;;;;1.05;0.32;;;24.80;67.30;;;;;;5037481;28;20025;-80
2021/08/09 09:31:29;;;;;;;1.95;0.52;;;24.90;69.50;;;;;;5055243;28;20025;-80
2021/08/09 09:33:55;;;;;;;1.35;0.30;;;25.00;70.40;;;;;;5036851;28;20476;-79
2021/08/09 09:36:21;;;;;;;3.45;0.95;;;25.00;66.80;;;;;;5037326;28;20533;-78
2021/08/09 09:38:54;;;;;;;2.55;0.40;;;24.70;67.20;;;;;;5037105;28;20024;-80
2021/08/09 09:41:22;;;;;;;2.42;0.50;;;24.60;67.30;;;;;;5054945;28;20025;-78
2021/08/09 09:43:48;;;;;;;0.70;0.20;;;24.80;70.10;;;;;;5055035;28;20028;-79
2021/08/09 09:46:23;;;;;;;6.15;0.40;;;25.00;67.60;;;;;;5036937;28;20033;-80
2021/08/09 09:48:49;;;;;;;2.20;0.40;;;25.00;67.30;;;;;;5037121;28;20025;-79
2021/08/09 09:51:17;;;;;;;0.75;0.30;;;25.00;66.80;;;;;;5037161;28;20033;-78
2021/08/09 09:53:45;;;;;;;2.67;0.50;;;25.20;66.70;;;;;;5036946;28;20017;-79
2021/08/09 09:56:11;;;;;;;4.57;0.32;;;25.30;65.80;;;;;;5036963;28;20025;-88
2021/08/09 09:58:38;;;;;;;0.30;0.30;;;25.30;67.40;;;;;;5054873;28;20032;-80
2021/08/09 10:01:06;;;;;;;2.78;0.35;;;25.50;65.50;;;;;;5038447;28;20057;-78
2021/08/09 10:03:33;;;;;;;2.38;0.50;;;25.60;65.70;;;;;;5056017;28;20021;-78
2021/08/09 10:06:01;;;;;;;1.33;0.40;;;25.80;67.10;;;;;;5038159;28;20033;-81
2021/08/09 10:08:31;;;;;;;3.60;0.40;;;25.90;64.40;;;;;;5038648;28;20025;-85
2021/08/09 10:11:00;;;;;;;1.60;0.50;;;25.80;65.20;;;;;;5038490;28;20071;-78
2021/08/09 10:13:27;;;;;;;3.33;0.63;;;25.80;64.60;;;;;;5037557;28;20053;-79
2021/08/09 10:15:55;;;;;;;3.08;0.50;;;25.90;65.80;;;;;;5037860;28;20700;-78
2021/08/09 10:18:27;;;;;;;1.63;0.40;;;25.80;65.70;;;;;;5037801;28;20025;-77
2021/08/09 10:20:53;;;;;;;2.92;0.40;;;25.80;65.10;;;;;;5037625;28;20102;-79
2021/08/09 10:23:42;;;;;;;1.05;0.40;;;25.80;65.30;;;;;;5037377;28;20021;-78
2021/08/09 10:26:13;;;;;;;1.00;0.40;;;25.80;64.90;;;;;;5037282;28;20040;-79
2021/08/09 10:28:54;;;;;;;0.63;0.30;;;25.80;64.80;;;;;;5037910;28;20488;-82
2021/08/09 10:31:29;;;;;;;1.00;0.20;;;25.90;64.80;;;;;;5055477;28;20546;-79
2021/08/09 10:33:54;;;;;;;1.58;0.40;;;25.80;63.60;;;;;;5037410;28;20036;-80
2021/08/09 10:36:21;;;;;;;2.78;0.40;;;25.80;65.00;;;;;;5054938;28;20029;-80
2021/08/09 10:38:53;;;;;;;0.77;0.47;;;25.50;66.20;;;;;;5037539;28;20047;-85
2021/08/09 10:41:31;;;;;;;1.65;0.50;;;25.60;66.80;;;;;;5037640;28;20055;-83
2021/08/09 10:44:06;;;;;;;3.10;0.30;;;25.80;68.00;;;;;;5036701;28;20459;-84
2021/08/09 10:46:38;;;;;;;4.07;0.50;;;26.00;68.90;;;;;;5037691;28;20029;-85
2021/08/09 10:49:30;;;;;;;3.97;0.50;;;26.20;66.90;;;;;;5038103;28;20461;-84
2021/08/09 10:51:56;;;;;;;1.95;0.40;;;26.10;66.40;;;;;;5037136;28;20021;-84
2021/08/09 10:54:35;;;;;;;3.45;0.40;;;26.30;68.30;;;;;;5037689;28;20094;-84
2021/08/09 10:57:05;;;;;;;1.35;0.30;;;26.40;67.40;;;;;;5037506;28;20092;-84
2021/08/09 10:59:49;;;;;;;2.10;0.50;;;26.60;67.80;;;;;;5037843;28;20021;-83
2021/08/09 11:02:34;;;;;;;16.17;1.10;;;26.70;69.10;;;;;;5037578;28;20071;-83
2021/08/09 11:05:15;;;;;;;3.45;0.50;;;26.90;68.30;;;;;;5037329;28;20029;-84
2021/08/09 11:07:42;;;;;;;1.65;0.50;;;26.80;66.50;;;;;;5037062;28;20037;-83
2021/08/09 11:10:08;;;;;;;1.40;0.28;;;26.80;66.80;;;;;;5035657;28;20017;-85
2021/08/09 11:12:54;;;;;;;1.23;0.30;;;26.70;66.50;;;;;;5035920;28;20079;-85
2021/08/09 11:15:19;;;;;;;1.05;0.38;;;26.80;65.40;;;;;;5035558;28;20039;-83
2021/08/09 11:17:48;;;;;;;2.25;0.40;;;26.70;62.40;;;;;;5035797;28;20109;-84
2021/08/09 11:20:36;;;;;;;1.50;0.40;;;26.70;60.40;;;;;;5053712;28;20021;-86
2021/08/09 11:23:11;;;;;;;1.90;0.50;;;26.60;61.50;;;;;;5025418;28;20029;-86
2021/08/09 11:25:44;;;;;;;1.42;0.28;;;26.60;62.40;;;;;;5035662;28;20057;-84
2021/08/09 11:28:17;;;;;;;1.50;0.43;;;26.60;62.70;;;;;;5035855;28;20032;-87
2021/08/09 11:30:43;;;;;;;1.25;0.50;;;26.70;61.40;;;;;;5035592;28;20534;-84
2021/08/09 11:33:34;;;;;;;3.58;0.47;;;26.90;62.70;;;;;;5035563;28;20025;-85
2021/08/09 11:36:01;;;;;;;4.38;0.43;;;26.80;61.00;;;;;;5035637;28;20373;-84
2021/08/09 11:38:29;;;;;;;1.00;0.50;;;26.80;61.80;;;;;;5035326;28;20028;-87
2021/08/09 11:41:01;;;;;;;2.20;0.40;;;26.90;62.50;;;;;;5035399;28;20025;-84
2021/08/09 11:43:29;;;;;;;0.90;0.40;;;27.00;62.80;;;;;;5035411;28;20021;-85
2021/08/09 11:46:03;;;;;;;1.02;0.40;;;27.00;62.20;;;;;;5034870;28;20129;-86
2021/08/09 11:48:34;;;;;;;1.85;0.30;;;27.00;62.20;;;;;;5035608;28;20029;-85
2021/08/09 11:51:03;;;;;;;0.63;0.40;;;26.90;62.50;;;;;;5029771;28;20024;-84
2021/08/09 11:53:29;;;;;;;2.25;0.50;;;27.00;63.70;;;;;;5035453;28;20032;-87
2021/08/09 11:56:09;;;;;;;2.15;0.40;;;27.20;62.90;;;;;;5035203;28;20021;-84
2021/08/09 11:58:35;;;;;;;1.90;0.40;;;27.30;63.70;;;;;;5035266;28;20029;-86
2021/08/09 12:01:02;;;;;;;1.10;0.57;;;27.20;62.40;;;;;;5035355;28;20403;-86
2021/08/09 12:03:28;;;;;;;1.08;0.40;;;26.70;62.30;;;;;;5035253;28;20535;-89
2021/08/09 12:05:58;;;;;;;0.80;0.35;;;26.30;63.20;;;;;;5035298;28;20433;-85
2021/08/09 12:08:24;;;;;;;1.33;0.50;;;26.30;65.10;;;;;;5052944;28;20125;-86
2021/08/09 12:10:51;;;;;;;1.92;0.60;;;26.40;64.80;;;;;;5035020;28;20025;-86
2021/08/09 12:13:22;;;;;;;2.72;0.50;;;26.50;65.50;;;;;;5034738;28;20033;-83
2021/08/09 12:16:07;;;;;;;3.45;0.73;;;26.60;64.80;;;;;;5035230;28;20032;-85
2021/08/09 12:18:32;;;;;;;1.95;0.60;;;26.70;65.60;;;;;;5034950;28;20082;-86
2021/08/09 12:21:13;;;;;;;1.15;0.60;;;26.80;64.00;;;;;;5035089;28;20128;-85
2021/08/09 12:23:56;;;;;;;0.60;0.50;;;26.80;63.70;;;;;;5034747;28;20083;-86
2021/08/09 12:26:32;;;;;;;0.60;0.47;;;26.80;64.60;;;;;;5034806;28;20108;-86
2021/08/09 12:29:00;;;;;;;1.52;0.70;;;26.90;65.60;;;;;;5035144;28;20021;-85
2021/08/09 12:31:35;;;;;;;1.73;0.63;;;27.10;64.60;;;;;;5034761;28;20116;-86
2021/08/09 12:34:04;;;;;;;1.63;0.60;;;27.30;63.20;;;;;;5035046;28;20022;-85
2021/08/09 12:36:30;;;;;;;2.17;0.60;;;27.40;63.70;;;;;;5034917;28;20036;-86
2021/08/09 12:38:56;;;;;;;1.75;0.70;;;27.60;64.90;;;;;;5034846;28;20025;-87
2021/08/09 12:41:27;;;;;;;0.98;0.60;;;27.70;64.60;;;;;;5034806;28;20078;-87
2021/08/09 12:43:53;;;;;;;3.15;0.60;;;27.60;63.00;;;;;;5034768;28;20027;-84
2021/08/09 12:46:19;;;;;;;1.55;0.77;;;27.70;63.90;;;;;;5034811;28;20040;-86
2021/08/09 12:48:52;;;;;;;3.67;0.60;;;27.60;62.50;;;;;;5034680;28;20053;-86
2021/08/09 12:51:19;;;;;;;2.90;0.75;;;27.70;64.20;;;;;;5034610;28;20029;-86